<?xml version="1.0" encoding="UTF-8" standalone="no" ?>
<gpx xmlns="http://www.topografix.com/GPX/1/1" xmlns:xsi="http://www.w3.org/2001/XMLSchema-instance" xsi:schemaLocation="http://www.topografix.com/GPX/1/1 http://www.topografix.com/GPX/1/1/gpx.xsd" version="1.1" creator="VisuGPX - https://www.visugpx.com">
  <metadata>
    <name>UT53</name>
  </metadata>
  <trk>
    <name><![CDATA[UT53 Étape 8]]></name>
    <extensions>
      <line xmlns="http://www.topografix.com/GPX/gpx_style/0/2">
        <color>008800</color>
        <width>4</width>
      </line>
    </extensions>
    <trkseg>
      <trkpt lat="48.52998" lon="7.32302">
        <ele>252.78532006247</ele>
        <time>2021-07-09T08:10:00.000Z</time>
      </trkpt>
      <trkpt lat="48.52974" lon="7.32311">
        <ele>250.6822388684</ele>
        <time>2021-07-09T08:10:00.008Z</time>
      </trkpt>
      <trkpt lat="48.52931" lon="7.32351">
        <ele>248.62547718297</ele>
        <time>2021-07-09T08:10:00.033Z</time>
      </trkpt>
      <trkpt lat="48.52912" lon="7.32342">
        <ele>247.42456911371</ele>
        <time>2021-07-09T08:10:00.065Z</time>
      </trkpt>
      <trkpt lat="48.52877" lon="7.32295">
        <ele>246.73649730713</ele>
        <time>2021-07-09T08:10:00.112Z</time>
      </trkpt>
      <trkpt lat="48.52848" lon="7.32287">
        <ele>246.18964859998</ele>
        <time>2021-07-09T08:10:00.169Z</time>
      </trkpt>
      <trkpt lat="48.52801" lon="7.32279">
        <ele>245.42311125429</ele>
        <time>2021-07-09T08:10:00.242Z</time>
      </trkpt>
      <trkpt lat="48.52807" lon="7.32245">
        <ele>245.88107610788</ele>
        <time>2021-07-09T08:10:00.323Z</time>
      </trkpt>
      <trkpt lat="48.52788" lon="7.32136">
        <ele>246.94299066763</ele>
        <time>2021-07-09T08:10:00.429Z</time>
      </trkpt>
      <trkpt lat="48.52785" lon="7.32028">
        <ele>249.00027807763</ele>
        <time>2021-07-09T08:10:00.559Z</time>
      </trkpt>
      <trkpt lat="48.52802" lon="7.31957">
        <ele>251.4317224796</ele>
        <time>2021-07-09T08:10:00.705Z</time>
      </trkpt>
      <trkpt lat="48.52839" lon="7.31873">
        <ele>254.34980608926</ele>
        <time>2021-07-09T08:10:00.874Z</time>
      </trkpt>
      <trkpt lat="48.52854" lon="7.31813">
        <ele>257.64415115602</ele>
        <time>2021-07-09T08:10:01.057Z</time>
      </trkpt>
      <trkpt lat="48.52883" lon="7.31765">
        <ele>261.60839660991</ele>
        <time>2021-07-09T08:10:01.254Z</time>
      </trkpt>
      <trkpt lat="48.52888" lon="7.3174">
        <ele>266.27272768379</ele>
        <time>2021-07-09T08:10:01.457Z</time>
      </trkpt>
      <trkpt lat="48.52918" lon="7.31666">
        <ele>272.47823522259</ele>
        <time>2021-07-09T08:10:01.679Z</time>
      </trkpt>
      <trkpt lat="48.52933" lon="7.31581">
        <ele>279.15073311881</ele>
        <time>2021-07-09T08:10:01.921Z</time>
      </trkpt>
      <trkpt lat="48.5296" lon="7.31543">
        <ele>284.64282299572</ele>
        <time>2021-07-09T08:10:02.175Z</time>
      </trkpt>
      <trkpt lat="48.52972" lon="7.31509">
        <ele>290.08991906164</ele>
        <time>2021-07-09T08:10:02.438Z</time>
      </trkpt>
      <trkpt lat="48.53005" lon="7.3145">
        <ele>295.47059383441</ele>
        <time>2021-07-09T08:10:02.718Z</time>
      </trkpt>
      <trkpt lat="48.53059" lon="7.31337">
        <ele>301.65618799866</ele>
        <time>2021-07-09T08:10:03.029Z</time>
      </trkpt>
      <trkpt lat="48.53148" lon="7.3125">
        <ele>308.45594640665</ele>
        <time>2021-07-09T08:10:03.375Z</time>
      </trkpt>
      <trkpt lat="48.53192" lon="7.31215">
        <ele>313.70217799876</ele>
        <time>2021-07-09T08:10:03.738Z</time>
      </trkpt>
      <trkpt lat="48.53251" lon="7.31148">
        <ele>318.46040911161</ele>
        <time>2021-07-09T08:10:04.125Z</time>
      </trkpt>
      <trkpt lat="48.53295" lon="7.3108">
        <ele>322.75571758671</ele>
        <time>2021-07-09T08:10:04.533Z</time>
      </trkpt>
      <trkpt lat="48.53334" lon="7.30975">
        <ele>327.06893421777</ele>
        <time>2021-07-09T08:10:04.968Z</time>
      </trkpt>
      <trkpt lat="48.53377" lon="7.30917">
        <ele>331.16823022512</ele>
        <time>2021-07-09T08:10:05.422Z</time>
      </trkpt>
      <trkpt lat="48.53457" lon="7.30837">
        <ele>335.55559191579</ele>
        <time>2021-07-09T08:10:05.908Z</time>
      </trkpt>
      <trkpt lat="48.53484" lon="7.30786">
        <ele>338.42095300389</ele>
        <time>2021-07-09T08:10:06.409Z</time>
      </trkpt>
      <trkpt lat="48.53501" lon="7.30729">
        <ele>340.87798079133</ele>
        <time>2021-07-09T08:10:06.924Z</time>
      </trkpt>
      <trkpt lat="48.53521" lon="7.30636">
        <ele>342.62575921743</ele>
        <time>2021-07-09T08:10:07.460Z</time>
      </trkpt>
      <trkpt lat="48.53548" lon="7.30564">
        <ele>343.43073936381</ele>
        <time>2021-07-09T08:10:08.015Z</time>
      </trkpt>
      <trkpt lat="48.53578" lon="7.30405">
        <ele>342.75545709603</ele>
        <time>2021-07-09T08:10:08.606Z</time>
      </trkpt>
      <trkpt lat="48.53633" lon="7.30302">
        <ele>341.73087450349</ele>
        <time>2021-07-09T08:10:09.226Z</time>
      </trkpt>
      <trkpt lat="48.5359" lon="7.30194">
        <ele>339.73601277392</ele>
        <time>2021-07-09T08:10:09.874Z</time>
      </trkpt>
      <trkpt lat="48.53547" lon="7.30139">
        <ele>336.76334150884</ele>
        <time>2021-07-09T08:10:10.541Z</time>
      </trkpt>
      <trkpt lat="48.53485" lon="7.29927">
        <ele>333.83420994523</ele>
        <time>2021-07-09T08:10:11.260Z</time>
      </trkpt>
      <trkpt lat="48.53416" lon="7.29747">
        <ele>331.95675905094</ele>
        <time>2021-07-09T08:10:12.025Z</time>
      </trkpt>
      <trkpt lat="48.53399" lon="7.29558">
        <ele>328.89979001883</ele>
        <time>2021-07-09T08:10:12.832Z</time>
      </trkpt>
      <trkpt lat="48.53405" lon="7.29442">
        <ele>325.30881603641</ele>
        <time>2021-07-09T08:10:13.665Z</time>
      </trkpt>
      <trkpt lat="48.53435" lon="7.29325">
        <ele>323.75628890797</ele>
        <time>2021-07-09T08:10:14.525Z</time>
      </trkpt>
      <trkpt lat="48.5344" lon="7.29233">
        <ele>322.27189131058</ele>
        <time>2021-07-09T08:10:15.406Z</time>
      </trkpt>
      <trkpt lat="48.53432" lon="7.29159">
        <ele>321.01868726905</ele>
        <time>2021-07-09T08:10:16.303Z</time>
      </trkpt>
      <trkpt lat="48.53433" lon="7.29129">
        <ele>320.2132879722</ele>
        <time>2021-07-09T08:10:17.207Z</time>
      </trkpt>
      <trkpt lat="48.53413" lon="7.29076">
        <ele>319.88766229121</ele>
        <time>2021-07-09T08:10:18.125Z</time>
      </trkpt>
      <trkpt lat="48.53412" lon="7.29007">
        <ele>321.0261058831</ele>
        <time>2021-07-09T08:10:19.058Z</time>
      </trkpt>
      <trkpt lat="48.5339" lon="7.28933">
        <ele>322.25133683947</ele>
        <time>2021-07-09T08:10:20.009Z</time>
      </trkpt>
      <trkpt lat="48.53387" lon="7.28844">
        <ele>323.41599563189</ele>
        <time>2021-07-09T08:10:20.980Z</time>
      </trkpt>
      <trkpt lat="48.53325" lon="7.28712">
        <ele>324.70515831084</ele>
        <time>2021-07-09T08:10:21.986Z</time>
      </trkpt>
      <trkpt lat="48.53281" lon="7.28507">
        <ele>326.6070166217</ele>
        <time>2021-07-09T08:10:23.040Z</time>
      </trkpt>
      <trkpt lat="48.53283" lon="7.28481">
        <ele>328.35642731622</ele>
        <time>2021-07-09T08:10:24.100Z</time>
      </trkpt>
      <trkpt lat="48.53314" lon="7.2839">
        <ele>330.67432890401</ele>
        <time>2021-07-09T08:10:25.183Z</time>
      </trkpt>
      <trkpt lat="48.53392" lon="7.28281">
        <ele>333.92065711965</ele>
        <time>2021-07-09T08:10:26.301Z</time>
      </trkpt>
      <trkpt lat="48.53392" lon="7.28281">
        <ele>338.36462940591</ele>
        <time>2021-07-09T08:10:27.419Z</time>
      </trkpt>
      <trkpt lat="48.5339" lon="7.28154">
        <ele>341.23385304057</ele>
        <time>2021-07-09T08:10:28.565Z</time>
      </trkpt>
      <trkpt lat="48.53369" lon="7.28012">
        <ele>343.48517075566</ele>
        <time>2021-07-09T08:10:29.744Z</time>
      </trkpt>
      <trkpt lat="48.53352" lon="7.27951">
        <ele>345.49855966865</ele>
        <time>2021-07-09T08:10:30.937Z</time>
      </trkpt>
      <trkpt lat="48.53328" lon="7.27891">
        <ele>347.83367503564</ele>
        <time>2021-07-09T08:10:32.146Z</time>
      </trkpt>
      <trkpt lat="48.53331" lon="7.27823">
        <ele>350.01573633254</ele>
        <time>2021-07-09T08:10:33.370Z</time>
      </trkpt>
      <trkpt lat="48.53306" lon="7.27724">
        <ele>352.69852582866</ele>
        <time>2021-07-09T08:10:34.617Z</time>
      </trkpt>
      <trkpt lat="48.53287" lon="7.27688">
        <ele>354.94859292351</ele>
        <time>2021-07-09T08:10:35.874Z</time>
      </trkpt>
      <trkpt lat="48.53256" lon="7.27564">
        <ele>358.01700853817</ele>
        <time>2021-07-09T08:10:37.161Z</time>
      </trkpt>
      <trkpt lat="48.53251" lon="7.2751">
        <ele>360.52708951475</ele>
        <time>2021-07-09T08:10:38.460Z</time>
      </trkpt>
      <trkpt lat="48.53261" lon="7.27439">
        <ele>363.46341595452</ele>
        <time>2021-07-09T08:10:39.775Z</time>
      </trkpt>
      <trkpt lat="48.53298" lon="7.27344">
        <ele>366.35906469653</ele>
        <time>2021-07-09T08:10:41.114Z</time>
      </trkpt>
      <trkpt lat="48.53384" lon="7.27211">
        <ele>370.35093661674</ele>
        <time>2021-07-09T08:10:42.495Z</time>
      </trkpt>
      <trkpt lat="48.53401" lon="7.27204">
        <ele>373.88030174067</ele>
        <time>2021-07-09T08:10:43.881Z</time>
      </trkpt>
      <trkpt lat="48.53453" lon="7.27201">
        <ele>378.3161106693</ele>
        <time>2021-07-09T08:10:45.285Z</time>
      </trkpt>
      <trkpt lat="48.53492" lon="7.27181">
        <ele>381.69846279829</ele>
        <time>2021-07-09T08:10:46.703Z</time>
      </trkpt>
      <trkpt lat="48.53516" lon="7.27144">
        <ele>384.68533493361</ele>
        <time>2021-07-09T08:10:48.132Z</time>
      </trkpt>
      <trkpt lat="48.5355" lon="7.27055">
        <ele>388.31187799851</ele>
        <time>2021-07-09T08:10:49.584Z</time>
      </trkpt>
      <trkpt lat="48.53585" lon="7.27011">
        <ele>391.19327189681</ele>
        <time>2021-07-09T08:10:51.051Z</time>
      </trkpt>
      <trkpt lat="48.53599" lon="7.26972">
        <ele>393.33263931871</ele>
        <time>2021-07-09T08:10:52.528Z</time>
      </trkpt>
      <trkpt lat="48.53621" lon="7.26867">
        <ele>395.67794438024</ele>
        <time>2021-07-09T08:10:54.029Z</time>
      </trkpt>
      <trkpt lat="48.53632" lon="7.26791">
        <ele>398.63295326598</ele>
        <time>2021-07-09T08:10:55.547Z</time>
      </trkpt>
      <trkpt lat="48.53642" lon="7.26766">
        <ele>401.44435175299</ele>
        <time>2021-07-09T08:10:57.072Z</time>
      </trkpt>
      <trkpt lat="48.53722" lon="7.26665">
        <ele>405.82548319337</ele>
        <time>2021-07-09T08:10:58.632Z</time>
      </trkpt>
      <trkpt lat="48.53747" lon="7.26642">
        <ele>409.61474877566</ele>
        <time>2021-07-09T08:11:00.201Z</time>
      </trkpt>
      <trkpt lat="48.53774" lon="7.26631">
        <ele>413.5592627695</ele>
        <time>2021-07-09T08:11:01.780Z</time>
      </trkpt>
      <trkpt lat="48.53823" lon="7.26604">
        <ele>418.30418067626</ele>
        <time>2021-07-09T08:11:03.376Z</time>
      </trkpt>
      <trkpt lat="48.5385" lon="7.26568">
        <ele>423.46323138259</ele>
        <time>2021-07-09T08:11:04.984Z</time>
      </trkpt>
      <trkpt lat="48.53859" lon="7.26488">
        <ele>429.52311835541</ele>
        <time>2021-07-09T08:11:06.610Z</time>
      </trkpt>
      <trkpt lat="48.53847" lon="7.2641">
        <ele>436.83114289386</ele>
        <time>2021-07-09T08:11:08.254Z</time>
      </trkpt>
      <trkpt lat="48.53866" lon="7.26311">
        <ele>444.21912165678</ele>
        <time>2021-07-09T08:11:09.921Z</time>
      </trkpt>
      <trkpt lat="48.53883" lon="7.26222">
        <ele>451.46423281011</ele>
        <time>2021-07-09T08:11:11.608Z</time>
      </trkpt>
      <trkpt lat="48.53908" lon="7.26202">
        <ele>458.17143405391</ele>
        <time>2021-07-09T08:11:13.305Z</time>
      </trkpt>
      <trkpt lat="48.53954" lon="7.26198">
        <ele>465.28474782126</ele>
        <time>2021-07-09T08:11:15.017Z</time>
      </trkpt>
      <trkpt lat="48.53953" lon="7.26115">
        <ele>472.37929146887</ele>
        <time>2021-07-09T08:11:16.747Z</time>
      </trkpt>
      <trkpt lat="48.53939" lon="7.26024">
        <ele>480.12797486893</ele>
        <time>2021-07-09T08:11:18.498Z</time>
      </trkpt>
      <trkpt lat="48.53944" lon="7.25981">
        <ele>487.42737624984</ele>
        <time>2021-07-09T08:11:20.259Z</time>
      </trkpt>
      <trkpt lat="48.5394" lon="7.25959">
        <ele>494.51728870004</ele>
        <time>2021-07-09T08:11:22.025Z</time>
      </trkpt>
      <trkpt lat="48.54024" lon="7.25883">
        <ele>502.54001301328</ele>
        <time>2021-07-09T08:11:23.824Z</time>
      </trkpt>
      <trkpt lat="48.54044" lon="7.25743">
        <ele>510.93125668651</ele>
        <time>2021-07-09T08:11:25.654Z</time>
      </trkpt>
      <trkpt lat="48.53995" lon="7.25672">
        <ele>518.30321160046</ele>
        <time>2021-07-09T08:11:27.507Z</time>
      </trkpt>
      <trkpt lat="48.53966" lon="7.25653">
        <ele>526.04906478207</ele>
        <time>2021-07-09T08:11:29.371Z</time>
      </trkpt>
      <trkpt lat="48.53945" lon="7.25675">
        <ele>533.93957902543</ele>
        <time>2021-07-09T08:11:31.243Z</time>
      </trkpt>
      <trkpt lat="48.53836" lon="7.2574">
        <ele>541.87520676351</ele>
        <time>2021-07-09T08:11:33.154Z</time>
      </trkpt>
      <trkpt lat="48.5379" lon="7.25737">
        <ele>551.64682685508</ele>
        <time>2021-07-09T08:11:35.081Z</time>
      </trkpt>
      <trkpt lat="48.53678" lon="7.25792">
        <ele>563.74175983808</ele>
        <time>2021-07-09T08:11:37.047Z</time>
      </trkpt>
      <trkpt lat="48.53717" lon="7.2565">
        <ele>574.85581073355</ele>
        <time>2021-07-09T08:11:39.047Z</time>
      </trkpt>
      <trkpt lat="48.53747" lon="7.25489">
        <ele>585.85788686915</ele>
        <time>2021-07-09T08:11:41.084Z</time>
      </trkpt>
      <trkpt lat="48.53698" lon="7.2554">
        <ele>596.20499662359</ele>
        <time>2021-07-09T08:11:43.141Z</time>
      </trkpt>
      <trkpt lat="48.53748" lon="7.25364">
        <ele>606.3961680562</ele>
        <time>2021-07-09T08:11:45.240Z</time>
      </trkpt>
      <trkpt lat="48.538" lon="7.25273">
        <ele>616.80446080699</ele>
        <time>2021-07-09T08:11:47.366Z</time>
      </trkpt>
      <trkpt lat="48.5387" lon="7.25199">
        <ele>626.81946544747</ele>
        <time>2021-07-09T08:11:49.520Z</time>
      </trkpt>
      <trkpt lat="48.53936" lon="7.25153">
        <ele>635.53777923601</ele>
        <time>2021-07-09T08:11:51.699Z</time>
      </trkpt>
      <trkpt lat="48.53946" lon="7.25127">
        <ele>644.16901256016</ele>
        <time>2021-07-09T08:11:53.884Z</time>
      </trkpt>
      <trkpt lat="48.53978" lon="7.25107">
        <ele>652.09047646689</ele>
        <time>2021-07-09T08:11:56.081Z</time>
      </trkpt>
      <trkpt lat="48.54044" lon="7.2513">
        <ele>659.29284482674</ele>
        <time>2021-07-09T08:11:58.300Z</time>
      </trkpt>
      <trkpt lat="48.54044" lon="7.2513">
        <ele>673.75318257995</ele>
        <time>2021-07-09T08:12:00.519Z</time>
      </trkpt>
      <trkpt lat="48.54003" lon="7.25039">
        <ele>684.34876210872</ele>
        <time>2021-07-09T08:12:02.763Z</time>
      </trkpt>
      <trkpt lat="48.53953" lon="7.2501">
        <ele>692.59285578659</ele>
        <time>2021-07-09T08:12:05.025Z</time>
      </trkpt>
      <trkpt lat="48.53896" lon="7.25001">
        <ele>701.06305784508</ele>
        <time>2021-07-09T08:12:07.306Z</time>
      </trkpt>
      <trkpt lat="48.53957" lon="7.24958">
        <ele>708.87311180264</ele>
        <time>2021-07-09T08:12:09.609Z</time>
      </trkpt>
      <trkpt lat="48.54029" lon="7.24929">
        <ele>717.74245049948</ele>
        <time>2021-07-09T08:12:11.937Z</time>
      </trkpt>
      <trkpt lat="48.54071" lon="7.24934">
        <ele>724.9376184421</ele>
        <time>2021-07-09T08:12:14.279Z</time>
      </trkpt>
      <trkpt lat="48.54165" lon="7.25007">
        <ele>733.18729671509</ele>
        <time>2021-07-09T08:12:16.656Z</time>
      </trkpt>
      <trkpt lat="48.54257" lon="7.25117">
        <ele>741.25960727755</ele>
        <time>2021-07-09T08:12:19.073Z</time>
      </trkpt>
      <trkpt lat="48.54285" lon="7.2514">
        <ele>748.36933022356</ele>
        <time>2021-07-09T08:12:21.500Z</time>
      </trkpt>
      <trkpt lat="48.54312" lon="7.25141">
        <ele>755.47886157401</ele>
        <time>2021-07-09T08:12:23.936Z</time>
      </trkpt>
      <trkpt lat="48.54344" lon="7.25104">
        <ele>763.30656348942</ele>
        <time>2021-07-09T08:12:26.386Z</time>
      </trkpt>
      <trkpt lat="48.54407" lon="7.25002">
        <ele>772.39507612909</ele>
        <time>2021-07-09T08:12:28.867Z</time>
      </trkpt>
      <trkpt lat="48.5449" lon="7.24956">
        <ele>780.68343395721</ele>
        <time>2021-07-09T08:12:31.377Z</time>
      </trkpt>
      <trkpt lat="48.54608" lon="7.24958">
        <ele>789.58727146815</ele>
        <time>2021-07-09T08:12:33.927Z</time>
      </trkpt>
      <trkpt lat="48.54679" lon="7.24984">
        <ele>797.85578764591</ele>
        <time>2021-07-09T08:12:36.501Z</time>
      </trkpt>
      <trkpt lat="48.54725" lon="7.25016">
        <ele>805.74763729348</ele>
        <time>2021-07-09T08:12:39.092Z</time>
      </trkpt>
      <trkpt lat="48.54738" lon="7.25009">
        <ele>812.82502718665</ele>
        <time>2021-07-09T08:12:41.687Z</time>
      </trkpt>
      <trkpt lat="48.54789" lon="7.25063">
        <ele>819.04061298634</ele>
        <time>2021-07-09T08:12:44.303Z</time>
      </trkpt>
      <trkpt lat="48.54848" lon="7.25131">
        <ele>825.30415206672</ele>
        <time>2021-07-09T08:12:46.944Z</time>
      </trkpt>
      <trkpt lat="48.54843" lon="7.25098">
        <ele>832.40069347285</ele>
        <time>2021-07-09T08:12:49.592Z</time>
      </trkpt>
      <trkpt lat="48.54904" lon="7.2514">
        <ele>839.86288209973</ele>
        <time>2021-07-09T08:12:52.263Z</time>
      </trkpt>
      <trkpt lat="48.55" lon="7.25261">
        <ele>847.44987334148</ele>
        <time>2021-07-09T08:12:54.976Z</time>
      </trkpt>
      <trkpt lat="48.5505" lon="7.25344">
        <ele>855.18977018707</ele>
        <time>2021-07-09T08:12:57.713Z</time>
      </trkpt>
      <trkpt lat="48.55075" lon="7.25359">
        <ele>862.43275806893</ele>
        <time>2021-07-09T08:13:00.459Z</time>
      </trkpt>
      <trkpt lat="48.55066" lon="7.25316">
        <ele>869.64724103685</ele>
        <time>2021-07-09T08:13:03.215Z</time>
      </trkpt>
      <trkpt lat="48.55078" lon="7.25249">
        <ele>877.57211572203</ele>
        <time>2021-07-09T08:13:05.987Z</time>
      </trkpt>
      <trkpt lat="48.55054" lon="7.25173">
        <ele>886.02640961912</ele>
        <time>2021-07-09T08:13:08.777Z</time>
      </trkpt>
      <trkpt lat="48.55029" lon="7.24978">
        <ele>895.54081124563</ele>
        <time>2021-07-09T08:13:11.611Z</time>
      </trkpt>
      <trkpt lat="48.55025" lon="7.24849">
        <ele>903.63949971779</ele>
        <time>2021-07-09T08:13:14.474Z</time>
      </trkpt>
      <trkpt lat="48.55032" lon="7.24645">
        <ele>913.16161132073</ele>
        <time>2021-07-09T08:13:17.382Z</time>
      </trkpt>
      <trkpt lat="48.55053" lon="7.24526">
        <ele>921.24223005576</ele>
        <time>2021-07-09T08:13:20.318Z</time>
      </trkpt>
      <trkpt lat="48.55074" lon="7.24503">
        <ele>928.11283182174</ele>
        <time>2021-07-09T08:13:23.262Z</time>
      </trkpt>
      <trkpt lat="48.55113" lon="7.24492">
        <ele>934.5278821967</ele>
        <time>2021-07-09T08:13:26.219Z</time>
      </trkpt>
      <trkpt lat="48.55241" lon="7.24384">
        <ele>944.44444546303</ele>
        <time>2021-07-09T08:13:29.225Z</time>
      </trkpt>
      <trkpt lat="48.55397" lon="7.24315">
        <ele>950.74521886457</ele>
        <time>2021-07-09T08:13:32.286Z</time>
      </trkpt>
      <trkpt lat="48.55412" lon="7.24297">
        <ele>956.87916674625</ele>
        <time>2021-07-09T08:13:35.353Z</time>
      </trkpt>
      <trkpt lat="48.55416" lon="7.24276">
        <ele>962.83025070141</ele>
        <time>2021-07-09T08:13:38.425Z</time>
      </trkpt>
      <trkpt lat="48.55375" lon="7.24297">
        <ele>968.86122366759</ele>
        <time>2021-07-09T08:13:41.511Z</time>
      </trkpt>
      <trkpt lat="48.55266" lon="7.24291">
        <ele>975.9224447279</ele>
        <time>2021-07-09T08:13:44.634Z</time>
      </trkpt>
      <trkpt lat="48.55194" lon="7.2428">
        <ele>981.57079906618</ele>
        <time>2021-07-09T08:13:47.781Z</time>
      </trkpt>
      <trkpt lat="48.55127" lon="7.24293">
        <ele>986.78842032459</ele>
        <time>2021-07-09T08:13:50.950Z</time>
      </trkpt>
      <trkpt lat="48.55015" lon="7.24293">
        <ele>991.88331557003</ele>
        <time>2021-07-09T08:13:54.157Z</time>
      </trkpt>
      <trkpt lat="48.54969" lon="7.24273">
        <ele>995.54032609722</ele>
        <time>2021-07-09T08:13:57.380Z</time>
      </trkpt>
      <trkpt lat="48.54952" lon="7.2422">
        <ele>998.8841133157</ele>
        <time>2021-07-09T08:14:00.616Z</time>
      </trkpt>
      <trkpt lat="48.5494" lon="7.24151">
        <ele>1001.3056614934</ele>
        <time>2021-07-09T08:14:03.868Z</time>
      </trkpt>
      <trkpt lat="48.54945" lon="7.24113">
        <ele>1002.9811636931</ele>
        <time>2021-07-09T08:14:07.128Z</time>
      </trkpt>
      <trkpt lat="48.54931" lon="7.24012">
        <ele>1003.9122163108</ele>
        <time>2021-07-09T08:14:10.411Z</time>
      </trkpt>
      <trkpt lat="48.54943" lon="7.24">
        <ele>1003.7905222672</ele>
        <time>2021-07-09T08:14:13.699Z</time>
      </trkpt>
      <trkpt lat="48.54939" lon="7.23959">
        <ele>1002.3839052051</ele>
        <time>2021-07-09T08:14:16.996Z</time>
      </trkpt>
      <trkpt lat="48.54903" lon="7.23983">
        <ele>1000.5909669482</ele>
        <time>2021-07-09T08:14:20.306Z</time>
      </trkpt>
      <trkpt lat="48.54903" lon="7.23983">
        <ele>995.69798931749</ele>
        <time>2021-07-09T08:14:23.616Z</time>
      </trkpt>
      <trkpt lat="48.54886" lon="7.24021">
        <ele>992.16449774121</ele>
        <time>2021-07-09T08:14:26.936Z</time>
      </trkpt>
      <trkpt lat="48.54877" lon="7.23984">
        <ele>987.68269000507</ele>
        <time>2021-07-09T08:14:30.265Z</time>
      </trkpt>
      <trkpt lat="48.5488" lon="7.23931">
        <ele>982.5213921101</ele>
        <time>2021-07-09T08:14:33.606Z</time>
      </trkpt>
      <trkpt lat="48.54924" lon="7.2388">
        <ele>978.09617453961</ele>
        <time>2021-07-09T08:14:36.965Z</time>
      </trkpt>
      <trkpt lat="48.54965" lon="7.23861">
        <ele>973.35804081783</ele>
        <time>2021-07-09T08:14:40.339Z</time>
      </trkpt>
      <trkpt lat="48.54978" lon="7.23791">
        <ele>967.51827116671</ele>
        <time>2021-07-09T08:14:43.729Z</time>
      </trkpt>
      <trkpt lat="48.54976" lon="7.2375">
        <ele>961.91401829457</ele>
        <time>2021-07-09T08:14:47.128Z</time>
      </trkpt>
      <trkpt lat="48.54964" lon="7.23721">
        <ele>956.29021622026</ele>
        <time>2021-07-09T08:14:50.534Z</time>
      </trkpt>
      <trkpt lat="48.54973" lon="7.23621">
        <ele>950.7601959664</ele>
        <time>2021-07-09T08:14:53.963Z</time>
      </trkpt>
      <trkpt lat="48.5493" lon="7.23384">
        <ele>944.51891538802</ele>
        <time>2021-07-09T08:14:57.446Z</time>
      </trkpt>
      <trkpt lat="48.54921" lon="7.23226">
        <ele>938.54730686318</ele>
        <time>2021-07-09T08:15:00.964Z</time>
      </trkpt>
      <trkpt lat="48.54931" lon="7.23158">
        <ele>933.95341325754</ele>
        <time>2021-07-09T08:15:04.498Z</time>
      </trkpt>
      <trkpt lat="48.54882" lon="7.23068">
        <ele>929.70167867375</ele>
        <time>2021-07-09T08:15:08.057Z</time>
      </trkpt>
      <trkpt lat="48.5486" lon="7.22928">
        <ele>927.59202354395</ele>
        <time>2021-07-09T08:15:11.648Z</time>
      </trkpt>
      <trkpt lat="48.54827" lon="7.22905">
        <ele>925.69190212893</ele>
        <time>2021-07-09T08:15:15.251Z</time>
      </trkpt>
      <trkpt lat="48.54803" lon="7.22856">
        <ele>924.22357843565</ele>
        <time>2021-07-09T08:15:18.868Z</time>
      </trkpt>
      <trkpt lat="48.54803" lon="7.22839">
        <ele>923.82141812357</ele>
        <time>2021-07-09T08:15:22.489Z</time>
      </trkpt>
      <trkpt lat="48.54784" lon="7.22801">
        <ele>923.84440351824</ele>
        <time>2021-07-09T08:15:26.120Z</time>
      </trkpt>
      <trkpt lat="48.54727" lon="7.2265">
        <ele>925.53000197401</ele>
        <time>2021-07-09T08:15:29.790Z</time>
      </trkpt>
      <trkpt lat="48.54683" lon="7.22596">
        <ele>926.79224290985</ele>
        <time>2021-07-09T08:15:33.479Z</time>
      </trkpt>
      <trkpt lat="48.5461" lon="7.22542">
        <ele>927.82936302191</ele>
        <time>2021-07-09T08:15:37.195Z</time>
      </trkpt>
      <trkpt lat="48.54595" lon="7.22482">
        <ele>930.58066218834</ele>
        <time>2021-07-09T08:15:40.925Z</time>
      </trkpt>
      <trkpt lat="48.54599" lon="7.22192">
        <ele>933.20645381556</ele>
        <time>2021-07-09T08:15:44.719Z</time>
      </trkpt>
      <trkpt lat="48.54592" lon="7.22075">
        <ele>936.29840310303</ele>
        <time>2021-07-09T08:15:48.539Z</time>
      </trkpt>
      <trkpt lat="48.546" lon="7.21943">
        <ele>940.01149274285</ele>
        <time>2021-07-09T08:15:52.389Z</time>
      </trkpt>
      <trkpt lat="48.54616" lon="7.2187">
        <ele>942.72296466902</ele>
        <time>2021-07-09T08:15:56.256Z</time>
      </trkpt>
      <trkpt lat="48.54649" lon="7.21796">
        <ele>945.75333184171</ele>
        <time>2021-07-09T08:16:00.142Z</time>
      </trkpt>
      <trkpt lat="48.54664" lon="7.216">
        <ele>948.52753694545</ele>
        <time>2021-07-09T08:16:04.072Z</time>
      </trkpt>
      <trkpt lat="48.54664" lon="7.215">
        <ele>951.34431170577</ele>
        <time>2021-07-09T08:16:08.024Z</time>
      </trkpt>
      <trkpt lat="48.54647" lon="7.21354">
        <ele>952.57444309904</ele>
        <time>2021-07-09T08:16:12.009Z</time>
      </trkpt>
      <trkpt lat="48.54613" lon="7.21274">
        <ele>953.47461370559</ele>
        <time>2021-07-09T08:16:16.015Z</time>
      </trkpt>
      <trkpt lat="48.54605" lon="7.21216">
        <ele>955.06207348997</ele>
        <time>2021-07-09T08:16:20.034Z</time>
      </trkpt>
      <trkpt lat="48.54613" lon="7.21127">
        <ele>955.61677668489</ele>
        <time>2021-07-09T08:16:24.073Z</time>
      </trkpt>
      <trkpt lat="48.54637" lon="7.21066">
        <ele>955.64702262529</ele>
        <time>2021-07-09T08:16:28.128Z</time>
      </trkpt>
      <trkpt lat="48.54678" lon="7.21013">
        <ele>955.76501998986</ele>
        <time>2021-07-09T08:16:32.201Z</time>
      </trkpt>
      <trkpt lat="48.54715" lon="7.20987">
        <ele>955.02067419577</ele>
        <time>2021-07-09T08:16:36.287Z</time>
      </trkpt>
      <trkpt lat="48.54824" lon="7.21068">
        <ele>954.60842905705</ele>
        <time>2021-07-09T08:16:40.414Z</time>
      </trkpt>
      <trkpt lat="48.54875" lon="7.21082">
        <ele>952.45473261774</ele>
        <time>2021-07-09T08:16:44.558Z</time>
      </trkpt>
      <trkpt lat="48.54989" lon="7.21083">
        <ele>949.25392487787</ele>
        <time>2021-07-09T08:16:48.740Z</time>
      </trkpt>
      <trkpt lat="48.55048" lon="7.21073">
        <ele>945.03937474934</ele>
        <time>2021-07-09T08:16:52.942Z</time>
      </trkpt>
      <trkpt lat="48.55106" lon="7.21013">
        <ele>939.40918202345</ele>
        <time>2021-07-09T08:16:57.168Z</time>
      </trkpt>
      <trkpt lat="48.55145" lon="7.20842">
        <ele>931.50495516253</ele>
        <time>2021-07-09T08:17:01.434Z</time>
      </trkpt>
      <trkpt lat="48.55157" lon="7.20727">
        <ele>923.18381147524</ele>
        <time>2021-07-09T08:17:05.725Z</time>
      </trkpt>
      <trkpt lat="48.55151" lon="7.20618">
        <ele>914.13540550062</ele>
        <time>2021-07-09T08:17:10.041Z</time>
      </trkpt>
      <trkpt lat="48.55148" lon="7.20383">
        <ele>902.74687002735</ele>
        <time>2021-07-09T08:17:14.409Z</time>
      </trkpt>
      <trkpt lat="48.55135" lon="7.20251">
        <ele>892.03523118769</ele>
        <time>2021-07-09T08:17:18.806Z</time>
      </trkpt>
      <trkpt lat="48.55135" lon="7.20251">
        <ele>874.26193899423</ele>
        <time>2021-07-09T08:17:23.203Z</time>
      </trkpt>
      <trkpt lat="48.55092" lon="7.20008">
        <ele>864.36781877314</ele>
        <time>2021-07-09T08:17:27.656Z</time>
      </trkpt>
      <trkpt lat="48.55027" lon="7.19872">
        <ele>854.11262603569</ele>
        <time>2021-07-09T08:17:32.146Z</time>
      </trkpt>
      <trkpt lat="48.54994" lon="7.19827">
        <ele>845.60567138523</ele>
        <time>2021-07-09T08:17:36.651Z</time>
      </trkpt>
      <trkpt lat="48.54988" lon="7.1985">
        <ele>837.41693168429</ele>
        <time>2021-07-09T08:17:41.162Z</time>
      </trkpt>
      <trkpt lat="48.54951" lon="7.19772">
        <ele>830.07165179908</ele>
        <time>2021-07-09T08:17:45.694Z</time>
      </trkpt>
      <trkpt lat="48.5488" lon="7.1955">
        <ele>823.29694653716</ele>
        <time>2021-07-09T08:17:50.280Z</time>
      </trkpt>
      <trkpt lat="48.54811" lon="7.19374">
        <ele>816.4756835129</ele>
        <time>2021-07-09T08:17:54.912Z</time>
      </trkpt>
      <trkpt lat="48.54801" lon="7.19317">
        <ele>811.14860030605</ele>
        <time>2021-07-09T08:17:59.557Z</time>
      </trkpt>
      <trkpt lat="48.54755" lon="7.19238">
        <ele>804.37598557005</ele>
        <time>2021-07-09T08:18:04.225Z</time>
      </trkpt>
      <trkpt lat="48.5473" lon="7.19184">
        <ele>797.33586359124</ele>
        <time>2021-07-09T08:18:08.908Z</time>
      </trkpt>
      <trkpt lat="48.54688" lon="7.19155">
        <ele>789.13047857495</ele>
        <time>2021-07-09T08:18:13.606Z</time>
      </trkpt>
      <trkpt lat="48.54632" lon="7.1913">
        <ele>780.3814539508</ele>
        <time>2021-07-09T08:18:18.323Z</time>
      </trkpt>
      <trkpt lat="48.54563" lon="7.19072">
        <ele>771.79268958555</ele>
        <time>2021-07-09T08:18:23.067Z</time>
      </trkpt>
      <trkpt lat="48.5451" lon="7.18997">
        <ele>764.89964120579</ele>
        <time>2021-07-09T08:18:27.835Z</time>
      </trkpt>
      <trkpt lat="48.54408" lon="7.19109">
        <ele>760.22185620931</ele>
        <time>2021-07-09T08:18:32.645Z</time>
      </trkpt>
      <trkpt lat="48.54282" lon="7.19166">
        <ele>755.53637177839</ele>
        <time>2021-07-09T08:18:37.499Z</time>
      </trkpt>
      <trkpt lat="48.54108" lon="7.19169">
        <ele>751.46427602321</ele>
        <time>2021-07-09T08:18:42.411Z</time>
      </trkpt>
      <trkpt lat="48.54048" lon="7.19159">
        <ele>748.94627676073</ele>
        <time>2021-07-09T08:18:47.343Z</time>
      </trkpt>
      <trkpt lat="48.53987" lon="7.19111">
        <ele>745.74940385668</ele>
        <time>2021-07-09T08:18:52.298Z</time>
      </trkpt>
      <trkpt lat="48.53874" lon="7.18974">
        <ele>743.6203857618</ele>
        <time>2021-07-09T08:18:57.302Z</time>
      </trkpt>
      <trkpt lat="48.53808" lon="7.1893">
        <ele>742.54094024997</ele>
        <time>2021-07-09T08:19:02.330Z</time>
      </trkpt>
      <trkpt lat="48.53753" lon="7.18915">
        <ele>741.17336262707</ele>
        <time>2021-07-09T08:19:07.376Z</time>
      </trkpt>
      <trkpt lat="48.53664" lon="7.18891">
        <ele>738.11554697847</ele>
        <time>2021-07-09T08:19:12.453Z</time>
      </trkpt>
      <trkpt lat="48.53607" lon="7.18837">
        <ele>736.08148580497</ele>
        <time>2021-07-09T08:19:17.552Z</time>
      </trkpt>
      <trkpt lat="48.53588" lon="7.18787">
        <ele>734.33958653563</ele>
        <time>2021-07-09T08:19:22.664Z</time>
      </trkpt>
      <trkpt lat="48.53506" lon="7.18469">
        <ele>733.48915681708</ele>
        <time>2021-07-09T08:19:27.851Z</time>
      </trkpt>
      <trkpt lat="48.53461" lon="7.18371">
        <ele>732.52089215919</ele>
        <time>2021-07-09T08:19:33.065Z</time>
      </trkpt>
      <trkpt lat="48.53423" lon="7.18343">
        <ele>730.4728465422</ele>
        <time>2021-07-09T08:19:38.293Z</time>
      </trkpt>
      <trkpt lat="48.53357" lon="7.18244">
        <ele>729.391154435</ele>
        <time>2021-07-09T08:19:43.552Z</time>
      </trkpt>
      <trkpt lat="48.5334" lon="7.18181">
        <ele>728.70311441405</ele>
        <time>2021-07-09T08:19:48.826Z</time>
      </trkpt>
      <trkpt lat="48.5332" lon="7.18153">
        <ele>727.25258695839</ele>
        <time>2021-07-09T08:19:54.109Z</time>
      </trkpt>
      <trkpt lat="48.53312" lon="7.18094">
        <ele>727.32094081198</ele>
        <time>2021-07-09T08:19:59.405Z</time>
      </trkpt>
      <trkpt lat="48.53296" lon="7.18033">
        <ele>726.90877522819</ele>
        <time>2021-07-09T08:20:04.716Z</time>
      </trkpt>
      <trkpt lat="48.53286" lon="7.17979">
        <ele>727.24012521298</ele>
        <time>2021-07-09T08:20:10.039Z</time>
      </trkpt>
      <trkpt lat="48.53247" lon="7.17866">
        <ele>727.89671521844</ele>
        <time>2021-07-09T08:20:15.391Z</time>
      </trkpt>
      <trkpt lat="48.53199" lon="7.17727">
        <ele>729.9112458552</ele>
        <time>2021-07-09T08:20:20.777Z</time>
      </trkpt>
      <trkpt lat="48.53189" lon="7.17671">
        <ele>732.59525106201</ele>
        <time>2021-07-09T08:20:26.176Z</time>
      </trkpt>
      <trkpt lat="48.53135" lon="7.17526">
        <ele>734.94908372534</ele>
        <time>2021-07-09T08:20:31.612Z</time>
      </trkpt>
      <trkpt lat="48.53104" lon="7.17401">
        <ele>739.10279215187</ele>
        <time>2021-07-09T08:20:37.078Z</time>
      </trkpt>
      <trkpt lat="48.5308" lon="7.17257">
        <ele>745.4234359971</ele>
        <time>2021-07-09T08:20:42.577Z</time>
      </trkpt>
      <trkpt lat="48.5308" lon="7.17257">
        <ele>756.33450147737</ele>
        <time>2021-07-09T08:20:48.076Z</time>
      </trkpt>
      <trkpt lat="48.52992" lon="7.17035">
        <ele>764.96327642679</ele>
        <time>2021-07-09T08:20:53.632Z</time>
      </trkpt>
      <trkpt lat="48.52918" lon="7.16971">
        <ele>771.59420846913</ele>
        <time>2021-07-09T08:20:59.216Z</time>
      </trkpt>
      <trkpt lat="48.52756" lon="7.16849">
        <ele>779.56084378504</ele>
        <time>2021-07-09T08:21:04.861Z</time>
      </trkpt>
      <trkpt lat="48.52772" lon="7.16795">
        <ele>786.02666206144</ele>
        <time>2021-07-09T08:21:10.519Z</time>
      </trkpt>
      <trkpt lat="48.52726" lon="7.16745">
        <ele>792.80337377809</ele>
        <time>2021-07-09T08:21:16.196Z</time>
      </trkpt>
      <trkpt lat="48.52643" lon="7.16691">
        <ele>800.12268685782</ele>
        <time>2021-07-09T08:21:21.903Z</time>
      </trkpt>
      <trkpt lat="48.52527" lon="7.16686">
        <ele>806.97256773236</ele>
        <time>2021-07-09T08:21:27.649Z</time>
      </trkpt>
      <trkpt lat="48.52398" lon="7.16735">
        <ele>814.22623823378</ele>
        <time>2021-07-09T08:21:33.439Z</time>
      </trkpt>
      <trkpt lat="48.52338" lon="7.16772">
        <ele>820.33198262878</ele>
        <time>2021-07-09T08:21:39.251Z</time>
      </trkpt>
      <trkpt lat="48.52215" lon="7.16915">
        <ele>827.05511080793</ele>
        <time>2021-07-09T08:21:45.115Z</time>
      </trkpt>
      <trkpt lat="48.52055" lon="7.1706">
        <ele>833.31755807403</ele>
        <time>2021-07-09T08:21:51.041Z</time>
      </trkpt>
      <trkpt lat="48.51941" lon="7.17127">
        <ele>837.1239923925</ele>
        <time>2021-07-09T08:21:57.008Z</time>
      </trkpt>
      <trkpt lat="48.518" lon="7.17137">
        <ele>840.27564671847</ele>
        <time>2021-07-09T08:22:03.022Z</time>
      </trkpt>
      <trkpt lat="48.51686" lon="7.17097">
        <ele>844.60229688517</ele>
        <time>2021-07-09T08:22:09.075Z</time>
      </trkpt>
      <trkpt lat="48.51591" lon="7.17048">
        <ele>847.80821338795</ele>
        <time>2021-07-09T08:22:15.161Z</time>
      </trkpt>
      <trkpt lat="48.51573" lon="7.16994">
        <ele>852.07066582489</ele>
        <time>2021-07-09T08:22:21.261Z</time>
      </trkpt>
      <trkpt lat="48.5156" lon="7.16789">
        <ele>859.37791679026</ele>
        <time>2021-07-09T08:22:27.406Z</time>
      </trkpt>
      <trkpt lat="48.51551" lon="7.16668">
        <ele>866.0422981515</ele>
        <time>2021-07-09T08:22:33.578Z</time>
      </trkpt>
      <trkpt lat="48.51552" lon="7.16631">
        <ele>871.83498829655</ele>
        <time>2021-07-09T08:22:39.759Z</time>
      </trkpt>
      <trkpt lat="48.51503" lon="7.16769">
        <ele>877.36980932753</ele>
        <time>2021-07-09T08:22:45.974Z</time>
      </trkpt>
      <trkpt lat="48.51407" lon="7.16757">
        <ele>885.77496336801</ele>
        <time>2021-07-09T08:22:52.221Z</time>
      </trkpt>
      <trkpt lat="48.51458" lon="7.16703">
        <ele>892.46788718707</ele>
        <time>2021-07-09T08:22:58.489Z</time>
      </trkpt>
      <trkpt lat="48.5144" lon="7.16688">
        <ele>899.26484357284</ele>
        <time>2021-07-09T08:23:04.764Z</time>
      </trkpt>
      <trkpt lat="48.51456" lon="7.16656">
        <ele>905.32971384537</ele>
        <time>2021-07-09T08:23:11.048Z</time>
      </trkpt>
      <trkpt lat="48.51461" lon="7.1656">
        <ele>911.86285987317</ele>
        <time>2021-07-09T08:23:17.353Z</time>
      </trkpt>
      <trkpt lat="48.51445" lon="7.16555">
        <ele>918.29051607393</ele>
        <time>2021-07-09T08:23:23.664Z</time>
      </trkpt>
      <trkpt lat="48.51439" lon="7.16499">
        <ele>924.26138035797</ele>
        <time>2021-07-09T08:23:29.987Z</time>
      </trkpt>
      <trkpt lat="48.51431" lon="7.16558">
        <ele>930.79590089666</ele>
        <time>2021-07-09T08:23:36.324Z</time>
      </trkpt>
      <trkpt lat="48.51408" lon="7.16478">
        <ele>937.85102636587</ele>
        <time>2021-07-09T08:23:42.680Z</time>
      </trkpt>
      <trkpt lat="48.51393" lon="7.16579">
        <ele>944.83881070241</ele>
        <time>2021-07-09T08:23:49.059Z</time>
      </trkpt>
      <trkpt lat="48.51363" lon="7.16486">
        <ele>953.33135986266</ele>
        <time>2021-07-09T08:23:55.461Z</time>
      </trkpt>
      <trkpt lat="48.51357" lon="7.16562">
        <ele>959.12604321188</ele>
        <time>2021-07-09T08:24:01.880Z</time>
      </trkpt>
      <trkpt lat="48.51353" lon="7.16583">
        <ele>964.2423058072</ele>
        <time>2021-07-09T08:24:08.304Z</time>
      </trkpt>
      <trkpt lat="48.51288" lon="7.1662">
        <ele>970.74773209891</ele>
        <time>2021-07-09T08:24:14.751Z</time>
      </trkpt>
      <trkpt lat="48.51285" lon="7.16615">
        <ele>975.75195661584</ele>
        <time>2021-07-09T08:24:21.199Z</time>
      </trkpt>
      <trkpt lat="48.51319" lon="7.16575">
        <ele>980.62869301567</ele>
        <time>2021-07-09T08:24:27.662Z</time>
      </trkpt>
      <trkpt lat="48.51322" lon="7.16545">
        <ele>985.2969539163</ele>
        <time>2021-07-09T08:24:34.131Z</time>
      </trkpt>
      <trkpt lat="48.51311" lon="7.16532">
        <ele>989.45883080447</ele>
        <time>2021-07-09T08:24:40.605Z</time>
      </trkpt>
      <trkpt lat="48.51303" lon="7.1656">
        <ele>991.99771959692</ele>
        <time>2021-07-09T08:24:47.086Z</time>
      </trkpt>
      <trkpt lat="48.51299" lon="7.16532">
        <ele>995.43473572803</ele>
        <time>2021-07-09T08:24:53.573Z</time>
      </trkpt>
      <trkpt lat="48.51284" lon="7.16516">
        <ele>997.88675468179</ele>
        <time>2021-07-09T08:25:00.066Z</time>
      </trkpt>
      <trkpt lat="48.51276" lon="7.16519">
        <ele>999.34675131825</ele>
        <time>2021-07-09T08:25:06.562Z</time>
      </trkpt>
      <trkpt lat="48.51272" lon="7.1649">
        <ele>1000.5754578177</ele>
        <time>2021-07-09T08:25:13.065Z</time>
      </trkpt>
      <trkpt lat="48.51251" lon="7.16437">
        <ele>1001.2011712824</ele>
        <time>2021-07-09T08:25:19.581Z</time>
      </trkpt>
    </trkseg>
  </trk>
</gpx>